French Corral, California
Current Conditions -  °F | °C
As of 4:58 PM on Tuesday 21 Oct 2014 (Local Time) from KBAB Reporting Station
Clear Clear  
Wind Chill: 70°   Ceiling: Unl
Heat Index: 70°   Visibility: 10mi
Dew Point: 40°   Wind: 9mph
Humidity: 34%   Direction: 310°NW
Pressure: 29.99"   Gusts: NA
Location:  39.1816°N, 121.266°W
Report Text: KBAB 212358Z AUTO 31008KT 10SM CLR 21/05 A2999 RMK AO2 SLP231 T02120045 10217 20167 57013 $
Loading
Personal Weather Stations






























Interactive Weather Map
Tropical Storm Tracking
New forecast layout! Learn more

10-Day Weather Forecast

Advertisements
Track Severe Weather on mobile